createdAt,value
2022-08-23T00:30:05.203Z,1004.34
2022-08-23T00:30:45.787Z,1004.29
2022-08-23T00:31:26.217Z,1004.32
2022-08-23T00:32:06.724Z,1004.34
2022-08-23T00:32:47.748Z,1004.3
2022-08-23T00:33:28.235Z,1004.29
2022-08-23T00:34:08.711Z,1004.3
2022-08-23T00:34:49.171Z,1004.29
2022-08-23T00:35:29.669Z,1004.26
2022-08-23T00:36:10.167Z,1004.3
2022-08-23T00:36:50.630Z,1004.28
2022-08-23T00:37:31.109Z,1004.26
2022-08-23T00:38:33.525Z,1004.28
2022-08-23T00:38:52.089Z,1004.24
2022-08-23T00:39:32.560Z,1004.24
2022-08-23T00:40:13.115Z,1004.26
2022-08-23T00:40:53.506Z,1004.27
2022-08-23T00:41:33.983Z,1004.25
2022-08-23T00:42:14.496Z,1004.3
2022-08-23T00:42:55.024Z,1004.28
2022-08-23T00:43:35.453Z,1004.28
2022-08-23T00:44:15.979Z,1004.29
2022-08-23T00:44:56.467Z,1004.29
2022-08-23T00:45:36.904Z,1004.28
2022-08-23T00:46:17.412Z,1004.29
2022-08-23T00:46:57.889Z,1004.3
2022-08-23T00:47:38.407Z,1004.27
2022-08-23T00:48:18.918Z,1004.28
2022-08-23T00:48:59.393Z,1004.28
2022-08-23T00:49:39.937Z,1004.3
2022-08-23T00:50:23.948Z,1004.3
2022-08-23T00:52:34.384Z,1004.29
2022-08-23T00:53:15.064Z,1004.29
2022-08-23T00:53:55.569Z,1004.3
2022-08-23T00:54:36.033Z,1004.29
2022-08-23T00:55:16.534Z,1004.3
2022-08-23T00:55:56.994Z,1004.33
2022-08-23T00:56:37.443Z,1004.32
2022-08-23T00:57:17.930Z,1004.37
2022-08-23T00:57:58.467Z,1004.34
2022-08-23T00:58:38.828Z,1004.36
2022-08-23T00:59:19.397Z,1004.4
2022-08-23T00:59:59.816Z,1004.39
2022-08-23T01:00:40.341Z,1004.38
2022-08-23T01:01:20.791Z,1004.41
2022-08-23T01:02:01.271Z,1004.41
2022-08-23T01:02:41.785Z,1004.41
2022-08-23T01:03:22.367Z,1004.42
2022-08-23T01:04:04.571Z,1004.43
2022-08-23T01:05:23.821Z,1004.45
2022-08-23T01:06:04.307Z,1004.48
2022-08-23T01:06:44.796Z,1004.47
2022-08-23T01:07:25.245Z,1004.49
2022-08-23T01:08:05.727Z,1004.51
2022-08-23T01:08:46.184Z,1004.49
2022-08-23T01:09:26.655Z,1004.49
2022-08-23T01:10:07.142Z,1004.49
2022-08-23T01:10:47.626Z,1004.48
2022-08-23T01:11:28.126Z,1004.48
2022-08-23T01:12:08.594Z,1004.46
2022-08-23T01:12:49.102Z,1004.46
2022-08-23T01:13:29.594Z,1004.48
2022-08-23T01:14:10.059Z,1004.47
2022-08-23T01:14:50.525Z,1004.47
2022-08-23T01:15:31.075Z,1004.47
2022-08-23T01:16:11.531Z,1004.46
2022-08-23T01:16:52.040Z,1004.49
2022-08-23T01:17:32.531Z,1004.48
2022-08-23T01:18:12.958Z,1004.49
2022-08-23T01:18:53.467Z,1004.54
2022-08-23T01:19:34.016Z,1004.46
2022-08-23T01:20:54.979Z,1004.56
2022-08-23T01:21:36.498Z,1004.57
2022-08-23T01:22:15.976Z,1004.62
2022-08-23T01:23:36.920Z,1004.62
2022-08-23T01:24:18.105Z,1004.64
2022-08-23T01:25:06.681Z,1004.63
2022-08-23T01:25:38.449Z,1004.63
2022-08-23T01:26:21.548Z,1004.67
2022-08-23T01:26:59.473Z,1004.68
2022-08-23T01:27:39.976Z,1004.65
2022-08-23T01:28:20.432Z,1004.67
2022-08-23T01:29:00.931Z,1004.68
2022-08-23T01:29:41.503Z,1004.66
2022-08-23T01:30:21.977Z,1004.69
2022-08-23T01:31:02.476Z,1004.67
2022-08-23T01:31:42.936Z,1004.69
2022-08-23T01:32:23.487Z,1004.68
2022-08-23T01:33:03.935Z,1004.66
2022-08-23T01:33:44.421Z,1004.69
2022-08-23T01:34:24.877Z,1004.65
2022-08-23T01:35:05.358Z,1004.65
2022-08-23T01:35:45.858Z,1004.67
2022-08-23T01:36:26.411Z,1004.64
2022-08-23T01:37:06.971Z,1004.64
2022-08-23T01:37:47.489Z,1004.65
2022-08-23T01:38:28.081Z,1004.63
2022-08-23T01:39:08.525Z,1004.63
2022-08-23T01:39:49.088Z,1004.59
2022-08-23T01:40:29.519Z,1004.61
2022-08-23T01:41:10.050Z,1004.63
2022-08-23T01:41:51.378Z,1004.62
2022-08-23T01:42:31.945Z,1004.64
2022-08-23T01:43:12.478Z,1004.63
2022-08-23T01:43:52.989Z,1004.66
2022-08-23T01:44:33.554Z,1004.62
2022-08-23T01:45:14.048Z,1004.63
2022-08-23T01:45:54.529Z,1004.61
2022-08-23T01:46:35.070Z,1004.65
2022-08-23T01:47:15.487Z,1004.66
2022-08-23T01:47:56.029Z,1004.66
2022-08-23T01:48:36.450Z,1004.64
2022-08-23T01:49:16.898Z,1004.68
2022-08-23T01:49:57.388Z,1004.68
2022-08-23T01:50:38.669Z,1004.72
2022-08-23T01:51:18.420Z,1004.68
2022-08-23T01:51:59.001Z,1004.73
2022-08-23T01:52:39.493Z,1004.71
2022-08-23T01:53:19.956Z,1004.73
2022-08-23T01:54:00.414Z,1004.74
2022-08-23T01:54:40.946Z,1004.72
2022-08-23T01:55:21.450Z,1004.77
2022-08-23T01:56:01.954Z,1004.75
2022-08-23T01:56:42.431Z,1004.75
2022-08-23T01:57:22.918Z,1004.71
2022-08-23T01:58:03.386Z,1004.75
2022-08-23T01:58:44.577Z,1004.74
2022-08-23T01:59:25.054Z,1004.72
2022-08-23T02:00:05.541Z,1004.69
2022-08-23T02:01:26.543Z,1004.69
2022-08-23T02:02:07.181Z,1004.69
2022-08-23T02:02:47.593Z,1004.68
2022-08-23T02:05:46.345Z,1004.68
2022-08-23T02:06:26.806Z,1004.74
2022-08-23T02:07:07.289Z,1004.73
2022-08-23T02:07:47.762Z,1004.73
2022-08-23T02:08:28.242Z,1004.72
2022-08-23T02:09:17.126Z,1004.69
2022-08-23T02:09:49.506Z,1004.71
2022-08-23T02:10:30.198Z,1004.69
2022-08-23T02:11:51.485Z,1004.68
2022-08-23T02:12:32.243Z,1004.66
2022-08-23T02:13:12.709Z,1004.67
2022-08-23T02:13:53.182Z,1004.66
2022-08-23T02:14:33.631Z,1004.67
2022-08-23T02:15:14.435Z,1004.68
2022-08-23T02:15:55.011Z,1004.68
2022-08-23T02:16:35.477Z,1004.67
2022-08-23T02:17:15.988Z,1004.66
2022-08-23T02:17:56.445Z,1004.68
2022-08-23T02:18:36.867Z,1004.72
2022-08-23T02:19:17.448Z,1004.66
2022-08-23T02:19:58.258Z,1004.67
2022-08-23T02:20:38.681Z,1004.69
2022-08-23T02:21:59.747Z,1004.71
2022-08-23T02:22:40.241Z,1004.74
2022-08-23T02:23:20.695Z,1004.75
2022-08-23T02:24:01.163Z,1004.76
2022-08-23T02:24:41.638Z,1004.77
2022-08-23T02:25:22.070Z,1004.76
2022-08-23T02:26:02.619Z,1004.75
2022-08-23T02:26:44.790Z,1004.74
2022-08-23T02:27:23.531Z,1004.73
2022-08-23T02:28:03.986Z,1004.73
2022-08-23T02:29:25.095Z,1004.73
2022-08-23T02:30:05.610Z,1004.7
2022-08-23T02:30:46.795Z,1004.72
2022-08-23T02:31:27.272Z,1004.72
2022-08-23T02:32:07.811Z,1004.72
2022-08-23T02:32:48.290Z,1004.78
2022-08-23T02:33:28.811Z,1004.76
2022-08-23T02:34:09.280Z,1004.75
2022-08-23T02:34:50.996Z,1004.77
2022-08-23T02:35:30.222Z,1004.77
2022-08-23T02:36:10.694Z,1004.77
2022-08-23T02:36:51.209Z,1004.79
2022-08-23T02:37:31.677Z,1004.8
2022-08-23T02:38:12.133Z,1004.78
2022-08-23T02:38:52.700Z,1004.8
2022-08-23T02:39:33.132Z,1004.76
2022-08-23T02:40:13.771Z,1004.8
2022-08-23T02:41:00.879Z,1004.78
2022-08-23T02:41:34.679Z,1004.81
2022-08-23T02:42:15.141Z,1004.81
2022-08-23T02:42:55.591Z,1004.77
2022-08-23T02:43:39.369Z,1004.81
2022-08-23T02:44:16.555Z,1004.79
2022-08-23T02:44:57.027Z,1004.8
2022-08-23T02:45:37.482Z,1004.78
2022-08-23T02:46:58.579Z,1004.8
2022-08-23T02:47:39.047Z,1004.78
2022-08-23T02:48:19.559Z,1004.81
2022-08-23T02:49:00.033Z,1004.81
2022-08-23T02:49:40.586Z,1004.8
2022-08-23T02:50:20.996Z,1004.79
2022-08-23T02:51:01.507Z,1004.81
2022-08-23T02:51:41.995Z,1004.82
2022-08-23T02:52:22.464Z,1004.84
2022-08-23T02:53:02.940Z,1004.85
2022-08-23T02:54:23.924Z,1004.88
2022-08-23T02:55:04.373Z,1004.84
2022-08-23T02:55:44.906Z,1004.87
2022-08-23T02:56:25.390Z,1004.88
2022-08-23T02:57:05.825Z,1004.87
2022-08-23T02:57:46.299Z,1004.85
2022-08-23T02:58:26.744Z,1004.89
2022-08-23T02:59:07.214Z,1004.9
2022-08-23T02:59:47.695Z,1004.91
2022-08-23T03:00:28.226Z,1004.86
2022-08-23T03:01:08.637Z,1004.88
2022-08-23T03:01:49.133Z,1004.89
2022-08-23T03:02:29.678Z,1004.91
2022-08-23T03:03:10.110Z,1004.9
2022-08-23T03:03:50.610Z,1004.9
2022-08-23T03:04:31.178Z,1004.88
2022-08-23T03:05:11.821Z,1004.91
2022-08-23T03:05:52.480Z,1004.92
2022-08-23T03:06:33.154Z,1004.91
2022-08-23T03:07:13.678Z,1004.91
2022-08-23T03:07:54.198Z,1004.9
2022-08-23T03:08:34.635Z,1004.95
2022-08-23T03:09:15.145Z,1004.92
2022-08-23T03:09:55.618Z,1004.91
2022-08-23T03:10:36.189Z,1004.89
2022-08-23T03:11:16.675Z,1004.89
2022-08-23T03:11:57.240Z,1004.9
2022-08-23T03:12:37.775Z,1004.88
2022-08-23T03:13:18.224Z,1004.89
2022-08-23T03:14:39.207Z,1004.84
2022-08-23T03:15:19.672Z,1004.86
2022-08-23T03:16:00.253Z,1004.87
2022-08-23T03:16:40.878Z,1004.83
2022-08-23T03:17:21.290Z,1004.85
2022-08-23T03:18:01.974Z,1004.87
2022-08-23T03:18:42.292Z,1004.87
2022-08-23T03:19:22.780Z,1004.87
2022-08-23T03:20:03.292Z,1004.87
2022-08-23T03:20:43.740Z,1004.89
2022-08-23T03:22:04.779Z,1004.88
2022-08-23T03:22:47.736Z,1004.91
2022-08-23T03:23:25.765Z,1004.9
2022-08-23T03:24:10.125Z,1004.89
2022-08-23T03:24:46.723Z,1004.92
2022-08-23T03:25:27.308Z,1004.87
2022-08-23T03:26:07.735Z,1004.9
2022-08-23T03:26:48.235Z,1004.87
2022-08-23T03:27:28.718Z,1004.89
2022-08-23T03:28:09.197Z,1004.88
2022-08-23T03:28:49.690Z,1004.88
2022-08-23T03:29:30.145Z,1004.84
2022-08-23T03:30:11.739Z,1004.84
2022-08-23T03:30:51.075Z,1004.84
2022-08-23T03:31:31.686Z,1004.84
2022-08-23T03:32:12.036Z,1004.87
2022-08-23T03:32:52.524Z,1004.89
2022-08-23T03:33:32.988Z,1004.86
2022-08-23T03:34:13.468Z,1004.9
2022-08-23T03:34:53.932Z,1004.91
2022-08-23T03:35:34.390Z,1004.88
2022-08-23T03:36:14.863Z,1004.89
2022-08-23T03:36:55.354Z,1004.9
2022-08-23T03:37:35.861Z,1004.89
2022-08-23T03:38:16.342Z,1004.9
2022-08-23T03:38:56.881Z,1004.93
2022-08-23T03:39:37.435Z,1004.93
2022-08-23T03:40:17.970Z,1004.91
2022-08-23T03:40:58.359Z,1004.95
2022-08-23T03:42:19.332Z,1004.97
2022-08-23T03:42:59.800Z,1004.93
2022-08-23T03:43:40.264Z,1004.94
2022-08-23T03:44:20.729Z,1004.94
2022-08-23T03:45:02.637Z,1004.97
2022-08-23T03:45:41.740Z,1004.92
2022-08-23T03:46:22.233Z,1004.95
2022-08-23T03:47:02.813Z,1004.95
2022-08-23T03:47:44.354Z,1004.92
2022-08-23T03:48:24.827Z,1004.91
2022-08-23T03:49:45.891Z,1004.92
2022-08-23T03:50:26.298Z,1004.93
2022-08-23T03:51:06.725Z,1004.96
2022-08-23T03:51:47.196Z,1004.96
2022-08-23T03:52:27.706Z,1004.94
2022-08-23T03:53:08.127Z,1004.98
2022-08-23T03:53:48.603Z,1004.96
2022-08-23T03:54:29.077Z,1005
2022-08-23T03:55:09.555Z,1005.01
2022-08-23T03:58:23.260Z,1005.07
2022-08-23T03:59:03.870Z,1005.09
2022-08-23T03:59:44.427Z,1005.08
2022-08-23T04:00:24.961Z,1005.13
2022-08-23T04:01:05.408Z,1005.14
2022-08-23T04:01:45.935Z,1005.14
2022-08-23T04:02:26.413Z,1005.11
2022-08-23T04:03:06.867Z,1005.1
2022-08-23T04:03:47.306Z,1005.13
2022-08-23T04:04:27.804Z,1005.16
2022-08-23T04:05:08.220Z,1005.19
2022-08-23T04:05:48.759Z,1005.18
2022-08-23T04:07:09.723Z,1005.25
2022-08-23T04:07:50.200Z,1005.26
2022-08-23T04:08:33.412Z,1005.25
2022-08-23T04:09:11.229Z,1005.28
2022-08-23T04:09:54.936Z,1005.28
2022-08-23T04:10:32.122Z,1005.28
2022-08-23T04:12:50.658Z,1005.3
2022-08-23T04:13:31.057Z,1005.3
2022-08-23T04:14:11.552Z,1005.32
2022-08-23T04:14:51.996Z,1005.35
2022-08-23T04:15:32.538Z,1005.32
2022-08-23T04:16:12.941Z,1005.29
2022-08-23T04:16:53.448Z,1005.33
2022-08-23T04:17:33.935Z,1005.32
2022-08-23T04:18:14.371Z,1005.28
2022-08-23T04:18:54.883Z,1005.18
2022-08-23T04:19:35.349Z,1005.33
2022-08-23T04:20:15.825Z,1005.37
2022-08-23T04:20:56.259Z,1005.36
2022-08-23T04:21:36.969Z,1005.39
2022-08-23T04:22:17.373Z,1005.42
2022-08-23T04:22:57.899Z,1005.4
2022-08-23T04:23:38.362Z,1005.4
2022-08-23T04:24:18.877Z,1005.46
2022-08-23T04:24:59.288Z,1005.47
2022-08-23T04:25:39.869Z,1005.47
2022-08-23T04:26:20.335Z,1005.51
2022-08-23T04:27:00.795Z,1005.5
2022-08-23T04:27:41.335Z,1005.5
2022-08-23T04:28:21.789Z,1005.5
2022-08-23T04:29:02.251Z,1005.54
2022-08-23T04:29:42.774Z,1005.56
2022-08-23T04:30:23.217Z,1005.54
2022-08-23T04:31:03.680Z,1005.57
2022-08-23T04:32:25.950Z,1005.57
2022-08-23T04:33:08.847Z,1005.54
2022-08-23T04:33:45.602Z,1005.57
2022-08-23T04:34:28.613Z,1005.57
2022-08-23T04:35:06.597Z,1005.6
2022-08-23T04:35:47.118Z,1005.56
2022-08-23T04:36:27.564Z,1005.56
2022-08-23T04:37:09.317Z,1005.6
2022-08-23T04:37:48.553Z,1005.56
2022-08-23T04:38:28.996Z,1005.61
2022-08-23T04:39:09.453Z,1005.58
2022-08-23T04:39:49.953Z,1005.61
2022-08-23T04:40:30.464Z,1005.59
2022-08-23T04:41:11.102Z,1005.62
2022-08-23T04:41:51.444Z,1005.63
2022-08-23T04:42:31.913Z,1005.63
2022-08-23T04:43:12.352Z,1005.63
2022-08-23T04:43:52.819Z,1005.62
2022-08-23T04:44:33.391Z,1005.65
2022-08-23T04:45:13.797Z,1005.7
2022-08-23T04:45:54.312Z,1005.69
2022-08-23T04:46:34.836Z,1005.7
2022-08-23T04:47:15.251Z,1005.72
2022-08-23T04:47:55.927Z,1005.75
2022-08-23T04:48:36.204Z,1005.75
2022-08-23T04:49:16.725Z,1005.74
2022-08-23T04:49:57.219Z,1005.76
2022-08-23T04:50:37.734Z,1005.76
2022-08-23T04:51:18.199Z,1005.76
2022-08-23T04:51:58.858Z,1005.76
2022-08-23T04:52:39.394Z,1005.77
2022-08-23T04:53:19.846Z,1005.78
2022-08-23T04:54:00.383Z,1005.81
2022-08-23T04:54:40.751Z,1005.79
2022-08-23T04:55:21.379Z,1005.78
2022-08-23T04:56:01.882Z,1005.8
2022-08-23T04:56:42.414Z,1005.8
2022-08-23T04:58:03.297Z,1005.8
2022-08-23T04:58:43.821Z,1005.82
2022-08-23T04:59:24.302Z,1005.85
2022-08-23T05:00:04.837Z,1005.85
2022-08-23T05:00:48.231Z,1005.86
2022-08-23T05:01:25.877Z,1005.89
2022-08-23T05:02:06.264Z,1005.88
2022-08-23T05:02:46.785Z,1005.84
2022-08-23T05:03:27.254Z,1005.91
2022-08-23T05:04:07.737Z,1005.9
2022-08-23T05:04:48.339Z,1005.92
2022-08-23T05:05:28.884Z,1005.91
2022-08-23T05:06:09.404Z,1005.91
2022-08-23T05:06:49.878Z,1005.93
2022-08-23T05:07:41.999Z,1005.93
2022-08-23T05:08:10.814Z,1005.91
2022-08-23T05:08:51.300Z,1005.92
2022-08-23T05:09:31.775Z,1005.91
2022-08-23T05:10:12.310Z,1005.92
2022-08-23T05:10:52.759Z,1005.91
2022-08-23T05:11:33.324Z,1005.9
2022-08-23T05:12:13.817Z,1005.93
2022-08-23T05:12:54.329Z,1005.94
2022-08-23T05:13:35.038Z,1005.94
2022-08-23T05:14:15.247Z,1005.95
2022-08-23T05:14:56.467Z,1005.95
2022-08-23T05:15:36.323Z,1005.95
2022-08-23T05:16:16.670Z,1005.95
2022-08-23T05:16:57.140Z,1005.97
2022-08-23T05:17:37.643Z,1005.99
2022-08-23T05:18:18.121Z,1005.93
2022-08-23T05:18:58.651Z,1005.98
2022-08-23T05:19:44.161Z,1005.99
2022-08-23T05:20:19.915Z,1005.98
2022-08-23T05:21:00.429Z,1005.95
2022-08-23T05:21:40.898Z,1006
2022-08-23T05:22:21.708Z,1005.94
2022-08-23T05:23:02.166Z,1005.97
2022-08-23T05:23:42.694Z,1005.99
2022-08-23T05:24:23.313Z,1005.98
2022-08-23T05:25:44.335Z,1006
2022-08-23T05:26:24.940Z,1006.01
2022-08-23T05:27:05.909Z,1006.02
2022-08-23T05:27:46.665Z,1006.03
2022-08-23T05:28:27.261Z,1006.04
2022-08-23T05:29:08.075Z,1006.04
2022-08-23T05:29:48.542Z,1006.04
2022-08-23T05:30:29.169Z,1006.06
2022-08-23T05:31:10.440Z,1006.06
2022-08-23T05:31:50.185Z,1006.06
2022-08-23T05:32:33.445Z,1006.07
2022-08-23T05:33:11.675Z,1006.09
2022-08-23T05:33:54.255Z,1006.15
2022-08-23T05:34:34.691Z,1006.12
2022-08-23T05:35:15.288Z,1006.1
2022-08-23T05:35:55.787Z,1006.12
2022-08-23T05:36:36.465Z,1006.13
2022-08-23T05:37:16.937Z,1006.09
2022-08-23T05:37:57.580Z,1006.13
2022-08-23T05:38:38.070Z,1006.09
2022-08-23T05:39:24.184Z,1006.11
2022-08-23T05:39:59.254Z,1006.16
2022-08-23T05:40:39.703Z,1006.16
2022-08-23T05:41:20.817Z,1006.16
2022-08-23T05:42:00.853Z,1006.16
2022-08-23T05:42:43.140Z,1006.16
2022-08-23T05:43:23.594Z,1006.19
2022-08-23T05:44:04.097Z,1006.21
2022-08-23T05:44:44.594Z,1006.21
2022-08-23T05:45:25.096Z,1006.24
2022-08-23T05:46:05.622Z,1006.25
2022-08-23T05:46:46.156Z,1006.23
2022-08-23T05:47:26.634Z,1006.21
2022-08-23T05:48:07.195Z,1006.22
2022-08-23T05:48:47.721Z,1006.28
2022-08-23T05:49:28.134Z,1006.25
2022-08-23T05:50:08.719Z,1006.21
2022-08-23T05:50:49.238Z,1006.27
2022-08-23T05:51:29.810Z,1006.28
2022-08-23T05:52:10.150Z,1006.29
2022-08-23T05:52:51.263Z,1006.28
2022-08-23T05:53:31.937Z,1006.32
2022-08-23T06:34:56.749Z,1006.51
2022-08-23T06:35:38.603Z,1006.42
2022-08-23T06:36:15.407Z,1006.49
2022-08-23T06:36:57.605Z,1006.51
2022-08-23T06:37:39.190Z,1006.53
2022-08-23T06:38:19.989Z,1006.52
2022-08-23T06:39:01.530Z,1006.52
2022-08-23T06:39:42.143Z,1006.53
2022-08-23T06:40:22.768Z,1006.53
2022-08-23T06:41:03.366Z,1006.16
2022-08-23T06:41:43.939Z,1006.58
2022-08-23T06:42:39.690Z,1006.58
2022-08-23T06:43:05.088Z,1006.58
2022-08-23T06:43:45.706Z,1006.56
2022-08-23T06:44:26.277Z,1006.55
2022-08-23T06:45:06.838Z,1006.62
2022-08-23T06:45:48.433Z,1006.6
2022-08-23T06:46:28.198Z,1006.64
2022-08-23T06:47:08.551Z,1006.66
2022-08-23T06:47:50.347Z,1006.63
2022-08-23T06:48:31.048Z,1006.65
2022-08-23T06:49:11.637Z,1006.68
2022-08-23T06:49:57.577Z,1006.67
2022-08-23T06:50:33.214Z,1006.67
2022-08-23T06:51:14.093Z,1006.69
2022-08-23T06:51:54.735Z,1006.7
2022-08-23T06:52:35.231Z,1006.67
2022-08-23T06:53:16.047Z,1006.67
2022-08-23T06:53:57.488Z,1006.69
2022-08-23T06:54:38.408Z,1006.71
2022-08-23T06:55:20.200Z,1006.68
2022-08-23T06:56:00.620Z,1006.68
2022-08-23T06:56:41.260Z,1006.69
2022-08-23T06:57:21.938Z,1006.72
2022-08-23T06:58:03.714Z,1006.67
2022-08-23T06:58:45.126Z,1006.68
2022-08-23T06:59:26.520Z,1006.68
2022-08-23T07:00:08.603Z,1006.69
2022-08-23T07:00:56.831Z,1006.69
2022-08-23T07:01:49.479Z,1006.7
2022-08-23T07:02:16.334Z,1006.68
2022-08-23T07:02:59.063Z,1006.69
2022-08-23T07:06:19.232Z,1006.7
2022-08-23T07:07:01.177Z,1006.73
2022-08-23T07:07:44.282Z,1006.7
2022-08-23T07:08:25.291Z,1006.72
2022-08-23T07:09:06.639Z,1006.66
2022-08-23T07:09:47.668Z,1006.69
2022-08-23T07:10:30.597Z,1006.65
2022-08-23T07:13:30.085Z,1006.66
2022-08-23T07:14:11.622Z,1006.47
2022-08-23T07:14:55.796Z,1006.65
2022-08-23T07:15:37.188Z,1006.64
2022-08-23T07:18:59.020Z,1006.69
2022-08-23T07:19:41.300Z,1006.7
2022-08-23T07:20:23.250Z,1006.7
2022-08-23T07:21:03.799Z,1006.71
2022-08-23T07:21:44.389Z,1006.72
2022-08-23T07:22:24.808Z,1006.71
2022-08-23T07:23:07.218Z,1006.7
2022-08-23T07:23:47.715Z,1006.69
2022-08-23T07:24:32.847Z,1006.72
2022-08-23T07:30:12.948Z,1006.74
2022-08-23T07:30:53.556Z,1006.75
2022-08-23T07:31:35.423Z,1006.76
2022-08-23T07:34:12.719Z,1006.86
2022-08-23T07:34:53.169Z,1006.85
2022-08-23T07:35:36.863Z,1006.89
2022-08-23T07:36:14.647Z,1006.85
2022-08-23T07:36:55.474Z,1006.84
2022-08-23T07:37:36.282Z,1006.84
2022-08-23T07:38:16.949Z,1006.85
2022-08-23T07:38:57.653Z,1006.87
2022-08-23T07:39:38.161Z,1006.91
2022-08-23T07:40:20.469Z,1006.86
2022-08-23T07:40:59.242Z,1006.91
2022-08-23T07:41:40.250Z,1006.9
2022-08-23T07:42:23.212Z,1006.85
2022-08-23T07:43:02.308Z,1006.87
2022-08-23T07:43:42.617Z,1006.89
2022-08-23T07:45:04.548Z,1006.85
2022-08-23T07:45:46.979Z,1006.92
2022-08-23T07:46:28.365Z,1006.88
2022-08-23T07:54:58.764Z,1006.94
2022-08-23T07:55:44.081Z,1006.94
2022-08-23T07:56:36.753Z,1006.95
2022-08-23T07:57:23.531Z,1006.97
2022-08-23T07:58:06.027Z,1006.95
2022-08-23T07:59:45.661Z,1006.92
2022-08-23T08:00:26.914Z,1006.99
2022-08-23T08:01:09.694Z,1006.96
2022-08-23T08:01:52.913Z,1006.97
2022-08-23T08:02:36.739Z,1006.95
2022-08-23T08:03:19.640Z,1006.93
2022-08-23T08:04:04.791Z,1006.96
2022-08-23T08:04:52.069Z,1006.93
2022-08-23T08:05:34.643Z,1006.96
2022-08-23T08:06:16.562Z,1006.96
2022-08-23T08:08:56.648Z,1006.94
2022-08-23T08:09:39.164Z,1006.97
2022-08-23T08:10:20.687Z,1007.01
2022-08-23T08:11:02.571Z,1006.99
2022-08-23T08:11:43.588Z,1007
2022-08-23T08:12:24.936Z,1006.97
2022-08-23T08:13:06.889Z,1006.98
2022-08-23T08:16:09.729Z,1007.01
2022-08-23T08:16:51.477Z,1007.02
2022-08-23T08:17:32.251Z,1007
2022-08-23T08:18:12.656Z,1007.06
2022-08-23T08:18:53.294Z,1007.05
2022-08-23T08:19:34.014Z,1007.06
2022-08-23T08:20:14.780Z,1007.05
2022-08-23T08:20:55.546Z,1007.03
2022-08-23T08:21:39.600Z,1007.03
2022-08-23T08:22:17.785Z,1007
2022-08-23T08:23:00.270Z,1007.04
2022-08-23T08:23:38.852Z,1007.03
2022-08-23T08:24:19.731Z,1006.98
2022-08-23T08:25:00.289Z,1006.99
2022-08-23T08:26:22.862Z,1007.02
2022-08-23T08:27:04.147Z,1007.05
2022-08-23T08:27:44.933Z,1007.02
2022-08-23T08:28:25.670Z,1007.05
2022-08-23T08:29:06.567Z,1007.04
2022-08-23T08:29:47.083Z,1007.08
2022-08-23T08:30:27.902Z,1007.05
2022-08-23T08:31:08.521Z,1007.04
2022-08-23T08:31:52.449Z,1007.04
2022-08-23T08:32:29.831Z,1007.05
2022-08-23T08:33:51.080Z,1007.07
2022-08-23T08:34:31.661Z,1007.04
2022-08-23T08:35:12.728Z,1007.02
2022-08-23T08:35:57.602Z,1007.02
2022-08-23T08:36:36.735Z,1007.02
2022-08-23T08:37:17.188Z,1006.98
2022-08-23T08:37:57.807Z,1007.01
2022-08-23T08:38:38.910Z,1007
2022-08-23T08:39:19.230Z,1007.03
2022-08-23T08:40:00.481Z,1007.01
2022-08-23T08:40:41.370Z,1007.03
2022-08-23T08:41:22.279Z,1007.04
2022-08-23T08:42:03.883Z,1006.99
2022-08-23T08:42:44.150Z,1006.99
2022-08-23T08:43:24.817Z,1006.99
2022-08-23T08:44:06.536Z,1006.96
2022-08-23T08:44:47.623Z,1006.99
2022-08-23T08:45:28.088Z,1007.01
2022-08-23T08:46:08.705Z,1007
2022-08-23T08:46:49.372Z,1007.02
2022-08-23T08:47:30.044Z,1007.01
2022-08-23T08:48:13.469Z,1007.03
2022-08-23T08:48:53.197Z,1007.05
2022-08-23T08:49:39.253Z,1007.03
2022-08-23T08:53:25.176Z,1007.08
2022-08-23T08:54:06.333Z,1007.07
2022-08-23T08:54:48.237Z,1007.1
2022-08-23T08:55:28.955Z,1007.11
2022-08-23T08:56:10.444Z,1007.1
2022-08-23T08:56:53.516Z,1007.08
2022-08-23T08:57:35.064Z,1007.11
2022-08-23T08:58:16.305Z,1007.08
2022-08-23T08:58:57.412Z,1007.11
2022-08-23T09:01:28.195Z,1007.08
2022-08-23T09:02:16.922Z,1007.07
2022-08-23T09:02:53.516Z,1007.07
2022-08-23T09:03:34.315Z,1007.08
2022-08-23T09:04:16.325Z,1007.11
2022-08-23T09:05:08.448Z,1007.07
2022-08-23T09:05:49.081Z,1007.09
2022-08-23T09:06:31.404Z,1007.08
2022-08-23T09:09:05.511Z,1007.09
2022-08-23T09:09:46.896Z,1007.06
2022-08-23T09:13:07.693Z,1007.06
2022-08-23T09:13:48.508Z,1007.04
2022-08-23T09:14:29.190Z,1007.09
2022-08-23T09:15:10.678Z,1007.13
2022-08-23T09:15:51.758Z,1007.08
2022-08-23T09:16:32.364Z,1007.08
2022-08-23T09:17:12.996Z,1007.09
2022-08-23T09:17:53.839Z,1007.1
2022-08-23T09:18:34.587Z,1007.14
2022-08-23T09:19:15.200Z,1007.07
2022-08-23T09:19:56.017Z,1007.1
2022-08-23T09:20:37.030Z,1007.1
2022-08-23T09:21:18.189Z,1007.12
2022-08-23T09:21:58.780Z,1007.09
2022-08-23T09:22:39.366Z,1007.11
2022-08-23T09:23:20.067Z,1007.09
2022-08-23T09:24:03.696Z,1007.07
2022-08-23T09:24:44.401Z,1007.09
2022-08-23T09:25:25.088Z,1007.1
2022-08-23T09:26:05.628Z,1007.1
2022-08-23T09:26:46.387Z,1007.05
2022-08-23T09:27:27.412Z,1007.07
2022-08-23T09:28:08.402Z,1007.06
2022-08-23T09:28:48.994Z,1007.12
2022-08-23T09:33:59.546Z,1007.01
2022-08-23T09:34:40.138Z,1007
2022-08-23T09:35:22.836Z,1007.02
2022-08-23T09:36:08.385Z,1007.06
2022-08-23T09:38:20.977Z,1007.03
2022-08-23T09:39:02.310Z,1007.02
2022-08-23T09:39:47.220Z,1007.02
2022-08-23T09:40:28.672Z,1007.01
2022-08-23T09:41:10.363Z,1007.05
2022-08-23T09:41:51.540Z,1007.05
2022-08-23T09:43:18.349Z,1006.98
2022-08-23T09:43:58.168Z,1007.01
2022-08-23T09:44:40.312Z,1007.01
2022-08-23T09:46:54.119Z,1007.01
2022-08-23T09:47:35.752Z,1007.03
2022-08-23T09:48:17.894Z,1007.02
2022-08-23T09:49:00.510Z,1006.99
2022-08-23T09:49:44.604Z,1006.98
2022-08-23T09:50:27.404Z,1006.97
2022-08-23T09:51:11.173Z,1006.96
2022-08-23T09:51:52.227Z,1006.9
2022-08-23T09:54:50.300Z,1006.92
2022-08-23T09:55:32.136Z,1006.92
2022-08-23T09:56:13.139Z,1006.91
2022-08-23T09:56:55.065Z,1006.93
2022-08-23T09:57:35.549Z,1006.89
2022-08-23T09:58:16.863Z,1006.89
2022-08-23T09:58:56.716Z,1006.89
2022-08-23T09:59:37.588Z,1006.84
2022-08-23T10:00:18.406Z,1006.84
2022-08-23T10:03:20.065Z,1006.81
2022-08-23T10:04:00.498Z,1006.83
2022-08-23T10:04:41.595Z,1006.82
2022-08-23T10:05:22.864Z,1006.81
2022-08-23T10:06:03.942Z,1006.8
2022-08-23T10:06:45.269Z,1006.78
2022-08-23T10:07:26.914Z,1006.84
2022-08-23T10:08:10.614Z,1006.83
2022-08-23T10:08:49.751Z,1006.84
2022-08-23T10:09:35.468Z,1006.85
2022-08-23T10:11:41.276Z,1006.84
2022-08-23T10:12:22.464Z,1006.88
2022-08-23T10:13:03.666Z,1006.9
2022-08-23T10:13:44.833Z,1006.85
2022-08-23T10:14:28.737Z,1006.87
2022-08-23T10:15:07.766Z,1006.86
2022-08-23T10:15:49.141Z,1006.87
2022-08-23T10:16:32.664Z,1006.87
2022-08-23T10:17:56.961Z,1006.86
2022-08-23T10:18:38.323Z,1006.87
2022-08-23T10:19:19.751Z,1006.88
2022-08-23T10:20:01.768Z,1006.87
2022-08-23T10:20:45.445Z,1006.91
2022-08-23T10:21:27.028Z,1006.83
2022-08-23T10:22:09.113Z,1006.87
2022-08-23T10:22:54.093Z,1006.88
2022-08-23T10:23:36.085Z,1006.87
2022-08-23T10:24:19.660Z,1006.88
2022-08-23T10:25:01.663Z,1006.86
2022-08-23T10:25:42.677Z,1006.86
2022-08-23T10:26:23.742Z,1006.88
2022-08-23T10:27:04.939Z,1006.86
2022-08-23T10:27:46.610Z,1006.86
2022-08-23T10:28:31.223Z,1006.87
2022-08-23T10:29:12.332Z,1006.87
2022-08-23T10:29:53.597Z,1006.86
2022-08-23T10:30:36.463Z,1006.86
2022-08-23T10:31:17.612Z,1006.84
2022-08-23T10:31:59.503Z,1006.88
2022-08-23T10:32:41.708Z,1006.86
2022-08-23T10:33:23.182Z,1006.87
2022-08-23T10:34:06.157Z,1006.85
2022-08-23T10:34:50.515Z,1006.85
2022-08-23T10:35:28.355Z,1006.89
2022-08-23T10:36:09.699Z,1006.82
2022-08-23T10:42:43.098Z,1006.8
2022-08-23T10:43:24.108Z,1006.78
2022-08-23T10:46:59.416Z,1006.7
2022-08-23T10:47:41.238Z,1006.75
2022-08-23T10:48:22.158Z,1006.72
2022-08-23T10:49:03.205Z,1006.72
2022-08-23T10:49:49.562Z,1006.72